Time;durP1;ratioP1;P1;durP2;ratioP2;P2;SDS_P1;SDS_P2;PMS_P1;PMS_P2;Temp;Humidity;BMP_temperature;BMP_pressure;BME280_temperature;BME280_humidity;BME280_pressure;Samples;Min_cycle;Max_cycle;Signal;HPM_P1;HPM_P2
2021/01/20 00:01:38;;;;;;;16.67;10.20;;;7.70;93.10;;;;;;5016199;28;20034;-76
2021/01/20 00:04:05;;;;;;;15.17;9.20;;;7.70;93.00;;;;;;5016154;28;20046;-76
2021/01/20 00:06:32;;;;;;;16.03;9.90;;;7.70;93.10;;;;;;5015716;28;20038;-74
2021/01/20 00:08:58;;;;;;;14.10;9.83;;;7.70;93.00;;;;;;5009019;28;20042;-76
2021/01/20 00:11:25;;;;;;;13.23;9.17;;;7.70;93.30;;;;;;5001364;28;20397;-76
2021/01/20 00:13:55;;;;;;;13.83;9.30;;;7.70;93.00;;;;;;5025344;28;20476;-76
2021/01/20 00:16:22;;;;;;;16.10;9.27;;;7.70;93.10;;;;;;5014718;28;20490;-75
2021/01/20 00:18:48;;;;;;;15.83;10.23;;;7.70;93.00;;;;;;5015754;28;20128;-76
2021/01/20 00:21:15;;;;;;;14.33;9.73;;;7.70;92.90;;;;;;5002854;28;20056;-76
2021/01/20 00:23:41;;;;;;;10.83;8.00;;;7.70;92.90;;;;;;5014650;28;20038;-75
2021/01/20 00:26:09;;;;;;;11.90;8.63;;;7.70;93.00;;;;;;5025084;28;20092;-76
2021/01/20 00:28:36;;;;;;;11.83;8.23;;;7.70;93.00;;;;;;4999404;28;20442;-78
2021/01/20 00:31:02;;;;;;;15.37;8.10;;;7.60;93.00;;;;;;5047307;28;20050;-78
2021/01/20 00:33:29;;;;;;;14.47;8.60;;;7.60;93.10;;;;;;5014648;28;20053;-76
2021/01/20 00:35:55;;;;;;;14.80;9.57;;;7.50;93.20;;;;;;4998124;28;20515;-77
2021/01/20 00:38:22;;;;;;;14.70;9.87;;;7.40;93.30;;;;;;5013957;28;20041;-77
2021/01/20 00:40:48;;;;;;;16.00;8.77;;;7.30;93.20;;;;;;5014252;28;20478;-77
2021/01/20 00:43:14;;;;;;;14.90;8.80;;;7.30;93.40;;;;;;5013907;28;20100;-76
2021/01/20 00:45:41;;;;;;;13.90;9.27;;;7.20;93.40;;;;;;4997921;28;20050;-75
2021/01/20 00:48:11;;;;;;;12.10;7.20;;;7.20;93.50;;;;;;5014246;28;20397;-77
2021/01/20 00:50:38;;;;;;;15.57;8.47;;;7.20;93.60;;;;;;5015276;28;20046;-76
2021/01/20 00:53:05;;;;;;;13.20;8.03;;;7.10;93.60;;;;;;5015314;28;20045;-76
2021/01/20 00:55:32;;;;;;;13.67;8.37;;;7.10;93.60;;;;;;5015498;28;20128;-76
2021/01/20 00:57:59;;;;;;;14.17;8.37;;;7.10;93.60;;;;;;5012467;28;20053;-76
2021/01/20 01:00:25;;;;;;;14.50;8.50;;;7.10;93.70;;;;;;4986605;28;20042;-76
2021/01/20 01:02:52;;;;;;;13.33;7.87;;;7.10;93.70;;;;;;5011817;28;20406;-76
2021/01/20 01:05:19;;;;;;;16.67;9.10;;;7.10;93.60;;;;;;4995895;28;20117;-76
2021/01/20 01:07:50;;;;;;;10.57;7.30;;;7.10;93.50;;;;;;4995801;28;20046;-76
2021/01/20 01:10:16;;;;;;;13.90;8.03;;;7.10;93.60;;;;;;4996776;28;20057;-76
2021/01/20 01:13:06;;;;;;;11.77;7.60;;;7.10;93.60;;;;;;4999077;28;20054;-72
2021/01/20 01:15:37;;;;;;;11.13;6.53;;;7.10;93.60;;;;;;4981340;28;20046;-76
2021/01/20 01:18:04;;;;;;;11.57;6.27;;;7.10;93.80;;;;;;4996935;28;20042;-76
2021/01/20 01:20:31;;;;;;;9.77;5.30;;;7.10;93.60;;;;;;5029961;28;20092;-77
2021/01/20 01:22:59;;;;;;;9.63;5.67;;;7.10;93.70;;;;;;4997244;28;20052;-76
2021/01/20 01:25:27;;;;;;;8.10;5.83;;;7.20;93.80;;;;;;5014528;28;20511;-76
2021/01/20 01:27:54;;;;;;;11.70;6.37;;;7.20;93.70;;;;;;5023391;28;20046;-76
2021/01/20 01:30:21;;;;;;;11.93;6.27;;;7.20;93.60;;;;;;5008191;28;20141;-76
2021/01/20 01:32:48;;;;;;;9.73;6.33;;;7.20;93.50;;;;;;5014391;28;20038;-76
2021/01/20 01:35:24;;;;;;;9.27;6.40;;;7.20;93.50;;;;;;5012824;28;20050;-76
2021/01/20 01:37:59;;;;;;;9.17;6.63;;;7.20;93.40;;;;;;5028310;28;20041;-76
2021/01/20 01:40:39;;;;;;;9.63;5.70;;;7.20;93.30;;;;;;5013230;28;20042;-76
2021/01/20 01:43:23;;;;;;;9.85;5.70;;;7.20;93.40;;;;;;5024463;28;20501;-76
2021/01/20 01:46:08;;;;;;;10.70;6.63;;;7.20;93.30;;;;;;5014075;28;20088;-76
2021/01/20 01:48:38;;;;;;;9.83;6.60;;;7.30;93.20;;;;;;5037162;28;20468;-76
2021/01/20 01:51:05;;;;;;;11.70;6.13;;;7.30;93.10;;;;;;5024909;28;20042;-76
2021/01/20 01:53:39;;;;;;;10.93;4.77;;;7.30;93.10;;;;;;5012586;28;20571;-76
2021/01/20 01:56:17;;;;;;;10.30;6.27;;;7.30;93.10;;;;;;5017079;28;20042;-76
2021/01/20 01:58:58;;;;;;;9.40;5.70;;;7.30;93.10;;;;;;5012462;28;20042;-76
2021/01/20 02:01:24;;;;;;;9.93;5.70;;;7.30;93.10;;;;;;5012513;28;20068;-77
2021/01/20 02:03:56;;;;;;;12.47;6.07;;;7.30;92.90;;;;;;5014260;28;20041;-77
2021/01/20 02:06:31;;;;;;;13.40;6.73;;;7.30;93.00;;;;;;5010448;28;20034;-77
2021/01/20 02:09:07;;;;;;;11.87;6.13;;;7.30;93.00;;;;;;4995943;28;20096;-77
2021/01/20 02:11:58;;;;;;;9.27;5.40;;;7.30;92.90;;;;;;5010020;28;20042;-77
2021/01/20 02:14:25;;;;;;;9.30;4.97;;;7.40;93.00;;;;;;5027908;28;20096;-77
2021/01/20 02:17:20;;;;;;;11.73;6.15;;;7.40;92.90;;;;;;5000899;28;20046;-77
2021/01/20 02:20:14;;;;;;;8.97;4.70;;;7.30;92.90;;;;;;5007987;28;20046;-77
2021/01/20 02:22:53;;;;;;;10.43;5.35;;;7.40;93.00;;;;;;5045697;28;20053;-77
2021/01/20 02:26:01;;;;;;;10.80;6.30;;;7.30;92.90;;;;;;5014042;28;20049;-77
2021/01/20 02:28:44;;;;;;;9.40;5.13;;;7.30;92.90;;;;;;5014755;28;20096;-77
2021/01/20 02:31:27;;;;;;;9.60;5.43;;;7.20;93.00;;;;;;5045867;28;20056;-77
2021/01/20 02:34:00;;;;;;;11.33;5.47;;;7.20;93.10;;;;;;5045753;28;20053;-77
2021/01/20 02:36:32;;;;;;;9.97;5.30;;;7.20;93.00;;;;;;5012560;28;20079;-77
2021/01/20 02:39:37;;;;;;;8.13;5.10;;;7.20;93.10;;;;;;5017445;28;20045;-77
2021/01/20 02:42:23;;;;;;;9.03;5.73;;;7.20;93.20;;;;;;5012360;28;20042;-78
2021/01/20 02:44:58;;;;;;;9.10;5.13;;;7.20;93.30;;;;;;5012027;28;20046;-77
2021/01/20 02:47:39;;;;;;;8.13;4.80;;;7.20;93.30;;;;;;4997968;28;20498;-77
2021/01/20 02:50:10;;;;;;;8.60;5.07;;;7.20;93.30;;;;;;5012388;28;20045;-77
2021/01/20 02:52:46;;;;;;;8.97;4.80;;;7.20;93.30;;;;;;5028575;28;20524;-77
2021/01/20 02:55:53;;;;;;;8.43;5.07;;;7.20;93.30;;;;;;5012079;28;20164;-77
2021/01/20 02:58:50;;;;;;;10.80;5.70;;;7.20;93.40;;;;;;5012948;28;20042;-77
2021/01/20 03:01:27;;;;;;;10.30;5.03;;;7.20;93.30;;;;;;5013775;28;20045;-77
2021/01/20 03:03:58;;;;;;;8.53;5.47;;;7.20;93.40;;;;;;5012492;28;20085;-72
2021/01/20 03:06:27;;;;;;;8.13;5.07;;;7.30;93.30;;;;;;5011944;28;20133;-72
2021/01/20 03:08:54;;;;;;;9.80;5.30;;;7.30;93.30;;;;;;5010645;28;20061;-73
2021/01/20 03:11:20;;;;;;;9.73;4.73;;;7.30;93.30;;;;;;5011011;28;20057;-73
2021/01/20 03:13:48;;;;;;;9.10;4.93;;;7.40;93.40;;;;;;5011552;28;20069;-73
2021/01/20 03:16:23;;;;;;;7.73;4.53;;;7.40;93.40;;;;;;4995840;28;20056;-73
2021/01/20 03:18:50;;;;;;;10.77;4.83;;;7.40;93.40;;;;;;5030278;28;20042;-73
2021/01/20 03:21:17;;;;;;;9.73;4.90;;;7.40;93.30;;;;;;5014123;28;20049;-73
2021/01/20 03:23:43;;;;;;;12.53;5.73;;;7.40;93.40;;;;;;4991179;28;20046;-73
2021/01/20 03:26:09;;;;;;;9.10;5.40;;;7.40;93.50;;;;;;5004666;28;20100;-73
2021/01/20 03:28:36;;;;;;;8.70;5.03;;;7.50;93.30;;;;;;5010380;28;20374;-73
2021/01/20 03:31:03;;;;;;;9.73;6.30;;;7.40;93.30;;;;;;4994065;28;20057;-73
2021/01/20 03:33:29;;;;;;;9.17;4.57;;;7.40;93.30;;;;;;5010685;28;20057;-72
2021/01/20 03:35:56;;;;;;;8.50;4.33;;;7.40;93.30;;;;;;5010487;28;20045;-73
2021/01/20 03:38:22;;;;;;;9.93;5.33;;;7.40;93.40;;;;;;5009781;28;20049;-72
2021/01/20 03:40:49;;;;;;;8.70;4.97;;;7.40;93.30;;;;;;5010055;28;20050;-72
2021/01/20 03:43:15;;;;;;;10.50;5.13;;;7.40;93.30;;;;;;5015014;28;20539;-73
2021/01/20 03:45:41;;;;;;;10.30;5.30;;;7.40;93.30;;;;;;5009766;28;20056;-76
2021/01/20 03:48:08;;;;;;;9.33;5.30;;;7.40;93.30;;;;;;5015522;28;20117;-77
2021/01/20 03:50:35;;;;;;;9.33;4.90;;;7.40;93.30;;;;;;5032170;28;20501;-77
2021/01/20 03:53:01;;;;;;;7.97;4.50;;;7.40;93.20;;;;;;5020574;28;20068;-72
2021/01/20 03:55:28;;;;;;;8.17;4.50;;;7.40;93.20;;;;;;5005983;28;20050;-72
2021/01/20 03:57:54;;;;;;;6.80;4.07;;;7.50;93.30;;;;;;4999710;28;20502;-73
2021/01/20 04:00:21;;;;;;;12.00;4.50;;;7.50;93.30;;;;;;5019013;28;20053;-72
2021/01/20 04:02:47;;;;;;;7.00;4.40;;;7.50;93.30;;;;;;5014659;28;20111;-73
2021/01/20 04:05:24;;;;;;;10.10;4.90;;;7.50;93.30;;;;;;5019953;28;20042;-72
2021/01/20 04:07:50;;;;;;;8.93;4.67;;;7.50;93.20;;;;;;5030114;28;20076;-72
2021/01/20 04:10:16;;;;;;;9.43;4.70;;;7.60;93.00;;;;;;5018477;28;20053;-72
2021/01/20 04:12:43;;;;;;;10.03;4.77;;;7.60;92.90;;;;;;5001967;28;20100;-72
2021/01/20 04:15:10;;;;;;;6.00;3.73;;;7.60;92.80;;;;;;5029015;28;20045;-72
2021/01/20 04:17:37;;;;;;;8.30;3.57;;;7.70;92.80;;;;;;5021113;28;20517;-72
2021/01/20 04:20:05;;;;;;;10.63;4.17;;;7.70;92.80;;;;;;5032121;28;20428;-72
2021/01/20 04:22:32;;;;;;;7.43;3.63;;;7.70;92.70;;;;;;5025799;28;20033;-73
2021/01/20 04:24:59;;;;;;;8.50;3.43;;;7.80;92.70;;;;;;5030245;28;20440;-73
2021/01/20 04:27:25;;;;;;;6.00;3.20;;;7.80;92.80;;;;;;5021306;28;20037;-72
2021/01/20 04:29:52;;;;;;;6.57;2.83;;;7.80;92.90;;;;;;5028760;28;20048;-72
2021/01/20 04:32:19;;;;;;;6.50;3.77;;;7.80;92.90;;;;;;5016686;28;20104;-72
2021/01/20 04:34:46;;;;;;;5.90;3.70;;;7.80;92.70;;;;;;5006746;28;20053;-72
2021/01/20 04:37:12;;;;;;;6.57;3.53;;;7.90;92.60;;;;;;5018465;28;20049;-72
2021/01/20 04:39:39;;;;;;;6.17;3.07;;;7.90;92.60;;;;;;5026963;28;20041;-72
2021/01/20 04:42:06;;;;;;;5.30;3.47;;;7.90;92.50;;;;;;5017633;28;20057;-72
2021/01/20 04:44:33;;;;;;;6.37;3.37;;;7.90;92.50;;;;;;5016090;28;20512;-72
2021/01/20 04:47:01;;;;;;;7.63;2.97;;;7.90;92.50;;;;;;5011502;28;20107;-72
2021/01/20 04:49:31;;;;;;;6.63;3.73;;;7.90;92.50;;;;;;5028090;28;20567;-72
2021/01/20 04:51:58;;;;;;;5.50;3.27;;;8.00;92.50;;;;;;5008326;28;20486;-72
2021/01/20 04:54:25;;;;;;;6.87;3.10;;;8.00;92.40;;;;;;5027792;28;20561;-72
2021/01/20 04:56:54;;;;;;;6.07;3.10;;;8.00;92.60;;;;;;5024350;28;20045;-72
2021/01/20 04:59:21;;;;;;;9.20;3.50;;;8.00;92.50;;;;;;5031799;28;20069;-72
2021/01/20 05:01:50;;;;;;;6.47;3.30;;;8.00;92.40;;;;;;5046521;28;20514;-72
2021/01/20 05:04:20;;;;;;;5.70;3.03;;;8.00;92.40;;;;;;5030242;28;20124;-72
2021/01/20 05:06:47;;;;;;;5.20;3.00;;;8.00;92.50;;;;;;5027836;28;20033;-72
2021/01/20 05:09:13;;;;;;;5.43;3.37;;;7.90;92.50;;;;;;5012031;28;20049;-73
2021/01/20 05:11:42;;;;;;;5.90;3.40;;;7.90;92.60;;;;;;5028487;28;20053;-72
2021/01/20 05:14:18;;;;;;;6.97;3.70;;;7.90;92.60;;;;;;5028878;28;20048;-73
2021/01/20 05:16:50;;;;;;;5.73;3.00;;;8.00;92.60;;;;;;5016440;28;20116;-72
2021/01/20 05:19:37;;;;;;;5.90;3.25;;;7.90;92.90;;;;;;5019628;28;20042;-73
2021/01/20 05:22:11;;;;;;;5.47;2.73;;;8.00;92.60;;;;;;5011026;28;20034;-72
2021/01/20 05:24:38;;;;;;;8.27;4.23;;;8.00;92.60;;;;;;5005422;28;20482;-72
2021/01/20 05:27:06;;;;;;;6.27;3.43;;;8.00;92.30;;;;;;5029089;28;20754;-72
2021/01/20 05:29:32;;;;;;;6.37;3.20;;;8.00;92.20;;;;;;5017785;28;20092;-72
2021/01/20 05:32:15;;;;;;;5.23;3.13;;;8.10;92.20;;;;;;5000817;28;20041;-72
2021/01/20 05:35:06;;;;;;;4.37;2.53;;;8.10;92.20;;;;;;4999228;28;20041;-72
2021/01/20 05:37:53;;;;;;;6.03;3.40;;;8.10;92.40;;;;;;5011741;28;20076;-72
2021/01/20 05:40:20;;;;;;;6.13;3.03;;;8.10;92.20;;;;;;5001077;28;20038;-72
2021/01/20 05:42:49;;;;;;;6.87;3.70;;;8.10;92.00;;;;;;5023599;28;20037;-72
2021/01/20 05:45:18;;;;;;;7.27;3.50;;;8.10;91.90;;;;;;5020358;28;20099;-72
2021/01/20 05:48:04;;;;;;;6.10;3.53;;;8.10;92.00;;;;;;5025801;28;20057;-72
2021/01/20 05:50:31;;;;;;;8.23;3.73;;;8.10;91.70;;;;;;4998219;28;20044;-72
2021/01/20 05:53:11;;;;;;;6.07;3.43;;;8.10;91.70;;;;;;5018841;28;20052;-72
2021/01/20 05:55:38;;;;;;;7.30;3.40;;;8.20;91.70;;;;;;5011062;28;20041;-72
2021/01/20 05:58:06;;;;;;;6.43;3.63;;;8.10;91.50;;;;;;5024620;28;20108;-72
2021/01/20 06:00:33;;;;;;;6.40;2.80;;;8.20;91.40;;;;;;5021458;28;20523;-72
2021/01/20 06:02:59;;;;;;;5.53;2.67;;;8.20;91.40;;;;;;4997812;28;20046;-72
2021/01/20 06:05:27;;;;;;;7.53;3.63;;;8.20;91.60;;;;;;5019488;28;20089;-72
2021/01/20 06:07:54;;;;;;;6.07;2.97;;;8.20;91.60;;;;;;5014729;28;20046;-72
2021/01/20 06:10:21;;;;;;;6.33;3.30;;;8.20;91.40;;;;;;5022704;28;20060;-72
2021/01/20 06:12:49;;;;;;;5.70;3.13;;;8.20;91.30;;;;;;5029064;28;20113;-72
2021/01/20 06:15:16;;;;;;;4.93;3.10;;;8.20;91.30;;;;;;5027501;28;20072;-72
2021/01/20 06:17:48;;;;;;;5.57;3.43;;;8.20;91.20;;;;;;5014925;28;20427;-72
2021/01/20 06:20:20;;;;;;;5.43;2.60;;;8.30;90.80;;;;;;5034751;28;20038;-72
2021/01/20 06:22:50;;;;;;;6.25;3.20;;;8.20;90.90;;;;;;5017225;28;20121;-72
2021/01/20 06:25:28;;;;;;;7.27;3.27;;;8.20;90.50;;;;;;5013044;28;20045;-72
2021/01/20 06:28:01;;;;;;;7.23;3.40;;;8.30;90.50;;;;;;5023517;28;20434;-72
2021/01/20 06:30:34;;;;;;;5.83;2.90;;;8.30;90.40;;;;;;5015064;28;20088;-72
2021/01/20 06:33:08;;;;;;;7.80;3.47;;;8.30;90.60;;;;;;5019001;28;20078;-72
2021/01/20 06:35:48;;;;;;;4.33;2.63;;;8.30;90.60;;;;;;5022215;28;20120;-72
2021/01/20 06:38:27;;;;;;;5.10;2.80;;;8.30;90.50;;;;;;5038510;28;20046;-72
2021/01/20 06:40:58;;;;;;;3.50;2.37;;;8.30;90.50;;;;;;5021085;28;20038;-72
2021/01/20 06:43:33;;;;;;;4.80;2.43;;;8.30;90.40;;;;;;5030430;28;20108;-72
2021/01/20 06:46:26;;;;;;;4.17;2.30;;;8.30;90.60;;;;;;5021430;28;20481;-72
2021/01/20 06:48:53;;;;;;;6.10;2.93;;;8.40;90.60;;;;;;5025835;28;20048;-72
2021/01/20 06:51:24;;;;;;;5.37;2.67;;;8.30;90.40;;;;;;5022810;28;20041;-72
2021/01/20 06:54:02;;;;;;;4.60;2.50;;;8.30;90.40;;;;;;5024600;28;20072;-75
2021/01/20 06:56:30;;;;;;;4.80;2.23;;;8.40;90.20;;;;;;5029117;28;20041;-75
2021/01/20 06:59:13;;;;;;;4.97;2.50;;;8.40;90.30;;;;;;5026460;28;20495;-75
2021/01/20 07:01:40;;;;;;;5.00;2.42;;;8.40;90.30;;;;;;5011203;28;20553;-75
2021/01/20 07:04:06;;;;;;;4.33;1.97;;;8.40;90.20;;;;;;5010643;28;20038;-75
2021/01/20 07:06:33;;;;;;;3.77;1.93;;;8.40;90.00;;;;;;5024852;28;20038;-74
2021/01/20 07:09:05;;;;;;;3.90;2.17;;;8.40;90.20;;;;;;5013673;28;20081;-75
2021/01/20 07:12:05;;;;;;;4.20;2.17;;;8.40;90.10;;;;;;5016847;28;20409;-74
2021/01/20 07:14:32;;;;;;;6.37;2.63;;;8.40;90.10;;;;;;5057655;28;20590;-75
2021/01/20 07:16:59;;;;;;;5.77;2.60;;;8.40;90.00;;;;;;5016835;28;20046;-74
2021/01/20 07:19:26;;;;;;;3.70;1.97;;;8.40;89.80;;;;;;5020978;28;20104;-74
2021/01/20 07:21:54;;;;;;;6.90;2.10;;;8.50;90.10;;;;;;5018754;28;20501;-75
2021/01/20 07:24:21;;;;;;;4.43;2.10;;;8.50;89.90;;;;;;5024790;28;20041;-75
2021/01/20 07:26:48;;;;;;;4.57;1.80;;;8.50;89.40;;;;;;5025156;28;20045;-72
2021/01/20 07:29:16;;;;;;;4.30;2.50;;;8.50;89.50;;;;;;5021738;28;20046;-72
2021/01/20 07:31:47;;;;;;;3.53;1.50;;;8.50;90.00;;;;;;5026228;28;20043;-72
2021/01/20 07:34:14;;;;;;;4.43;2.07;;;8.50;90.10;;;;;;4983776;28;20050;-72
2021/01/20 07:36:41;;;;;;;3.77;1.80;;;8.50;90.00;;;;;;5016928;28;20065;-72
2021/01/20 07:39:25;;;;;;;3.10;1.53;;;8.50;90.00;;;;;;5016698;28;20112;-72
2021/01/20 07:41:56;;;;;;;4.27;1.90;;;8.60;90.10;;;;;;4999812;28;20565;-72
2021/01/20 07:44:24;;;;;;;4.00;1.50;;;8.50;90.10;;;;;;5017215;28;20121;-72
2021/01/20 07:47:08;;;;;;;3.20;1.73;;;8.50;90.30;;;;;;5020688;28;20125;-72
2021/01/20 07:49:35;;;;;;;3.83;1.50;;;8.60;90.30;;;;;;5020802;28;20069;-72
2021/01/20 07:52:02;;;;;;;3.73;1.53;;;8.60;90.30;;;;;;4997790;28;20505;-72
2021/01/20 07:54:44;;;;;;;3.40;1.63;;;8.50;90.30;;;;;;5024003;28;20049;-72
2021/01/20 07:57:16;;;;;;;3.00;1.52;;;8.60;90.30;;;;;;5018406;28;20042;-72
2021/01/20 07:59:44;;;;;;;2.83;1.20;;;8.60;90.40;;;;;;5011900;28;20091;-72
2021/01/20 08:02:15;;;;;;;3.10;1.40;;;8.60;90.60;;;;;;5013573;28;20049;-72
2021/01/20 08:04:42;;;;;;;4.80;2.20;;;8.60;90.60;;;;;;5025339;28;20042;-72
2021/01/20 08:07:12;;;;;;;4.17;1.70;;;8.60;90.50;;;;;;5034838;28;20073;-72
2021/01/20 08:09:44;;;;;;;3.63;1.77;;;8.60;90.60;;;;;;5026481;28;20045;-72
2021/01/20 08:12:24;;;;;;;3.63;1.80;;;8.60;90.60;;;;;;5025830;28;20042;-72
2021/01/20 08:14:52;;;;;;;3.13;1.80;;;8.60;90.60;;;;;;5029248;28;20132;-74
2021/01/20 08:17:19;;;;;;;4.93;2.17;;;8.60;90.60;;;;;;5024644;28;20125;-73
2021/01/20 08:19:48;;;;;;;3.97;2.20;;;8.60;90.80;;;;;;5007841;28;20047;-72
2021/01/20 08:22:15;;;;;;;3.83;2.10;;;8.60;90.70;;;;;;5034679;28;20120;-72
2021/01/20 08:24:50;;;;;;;3.90;2.10;;;8.60;90.70;;;;;;5010119;28;20457;-72
2021/01/20 08:27:25;;;;;;;3.70;1.83;;;8.60;90.70;;;;;;5014949;28;20041;-72
2021/01/20 08:29:57;;;;;;;3.07;1.83;;;8.60;90.80;;;;;;5015868;28;20041;-72
2021/01/20 08:32:23;;;;;;;4.93;2.03;;;8.60;90.80;;;;;;5034618;28;20587;-73
2021/01/20 08:34:51;;;;;;;4.13;2.00;;;8.70;91.00;;;;;;5033289;28;20044;-74
2021/01/20 08:37:39;;;;;;;5.03;2.00;;;8.70;90.90;;;;;;5035182;28;20041;-74
2021/01/20 08:40:13;;;;;;;4.33;2.20;;;8.70;91.00;;;;;;5022172;28;20401;-74
2021/01/20 08:42:41;;;;;;;4.37;2.03;;;8.70;91.00;;;;;;5003124;28;20042;-72
2021/01/20 08:45:19;;;;;;;5.20;2.70;;;8.70;91.10;;;;;;5026854;28;20096;-72
2021/01/20 08:47:55;;;;;;;4.33;1.90;;;8.70;91.10;;;;;;5023244;28;20042;-72
2021/01/20 08:50:42;;;;;;;4.50;2.00;;;8.70;91.10;;;;;;5029984;28;20095;-72
2021/01/20 08:53:11;;;;;;;4.60;1.93;;;8.70;91.20;;;;;;5026434;28;20185;-71
2021/01/20 08:55:50;;;;;;;3.50;1.63;;;8.70;91.20;;;;;;5034316;28;20126;-74
2021/01/20 08:58:33;;;;;;;3.70;1.80;;;8.70;91.30;;;;;;5021149;28;20119;-75
2021/01/20 09:01:15;;;;;;;3.20;1.53;;;8.70;91.40;;;;;;5031514;28;20037;-76
2021/01/20 09:03:59;;;;;;;4.10;1.57;;;8.70;91.40;;;;;;5017927;28;20060;-74
2021/01/20 09:06:27;;;;;;;2.97;1.33;;;8.70;91.40;;;;;;5029916;28;20486;-75
2021/01/20 09:08:54;;;;;;;2.87;1.20;;;8.70;91.50;;;;;;5049169;28;20096;-72
2021/01/20 09:11:22;;;;;;;3.53;1.43;;;8.70;91.60;;;;;;5030782;28;20053;-72
2021/01/20 09:13:50;;;;;;;3.67;1.60;;;8.80;91.60;;;;;;5032342;28;20045;-72
2021/01/20 09:16:27;;;;;;;4.00;1.73;;;8.80;91.40;;;;;;5033457;28;20103;-72
2021/01/20 09:18:54;;;;;;;4.20;1.93;;;8.80;91.40;;;;;;5030176;28;20473;-71
2021/01/20 09:21:21;;;;;;;3.00;1.40;;;8.80;91.30;;;;;;5012631;28;20064;-72
2021/01/20 09:23:51;;;;;;;2.47;0.93;;;8.80;91.40;;;;;;5032361;28;20038;-72
2021/01/20 09:26:18;;;;;;;3.63;1.23;;;8.80;91.50;;;;;;5020464;28;20049;-72
2021/01/20 09:28:45;;;;;;;3.90;1.40;;;8.80;91.50;;;;;;5015150;28;20099;-72
2021/01/20 09:31:11;;;;;;;2.00;0.97;;;8.90;91.60;;;;;;5025273;28;21022;-72
2021/01/20 09:33:38;;;;;;;2.60;1.23;;;8.90;91.60;;;;;;5033277;28;20099;-72
2021/01/20 09:36:05;;;;;;;2.73;1.10;;;9.00;91.60;;;;;;5020755;28;20049;-75
2021/01/20 09:38:32;;;;;;;3.30;1.50;;;9.00;91.40;;;;;;5017796;28;20191;-72
2021/01/20 09:41:01;;;;;;;2.33;1.07;;;9.10;91.30;;;;;;5026728;28;20408;-72
2021/01/20 09:43:28;;;;;;;3.73;1.10;;;9.20;91.40;;;;;;5000008;28;20482;-72
2021/01/20 09:45:55;;;;;;;2.80;1.10;;;9.20;91.20;;;;;;5020737;28;20041;-72
2021/01/20 09:48:22;;;;;;;1.73;0.80;;;9.30;91.30;;;;;;5033239;28;20038;-72
2021/01/20 09:50:49;;;;;;;4.90;1.53;;;9.30;91.20;;;;;;5013660;28;20053;-72
2021/01/20 09:53:15;;;;;;;3.00;0.90;;;9.40;90.90;;;;;;5027418;28;20091;-72
2021/01/20 09:55:41;;;;;;;3.53;1.10;;;9.40;90.60;;;;;;4994358;28;20054;-72
2021/01/20 09:58:08;;;;;;;2.33;1.07;;;9.50;90.80;;;;;;5025990;28;20045;-72
2021/01/20 10:00:36;;;;;;;5.37;1.23;;;9.60;90.50;;;;;;5005186;28;20088;-72
2021/01/20 10:03:06;;;;;;;2.20;1.07;;;9.60;90.40;;;;;;5014866;28;20068;-72
2021/01/20 10:05:33;;;;;;;2.47;1.00;;;9.60;90.30;;;;;;5019822;28;20065;-72
2021/01/20 10:08:00;;;;;;;3.40;1.00;;;9.70;90.20;;;;;;5023663;28;20124;-71
2021/01/20 10:10:27;;;;;;;2.23;1.20;;;9.70;89.90;;;;;;5005736;28;20148;-73
2021/01/20 10:12:54;;;;;;;2.63;1.63;;;9.80;89.60;;;;;;5032812;28;20376;-76
2021/01/20 10:15:22;;;;;;;3.33;1.63;;;9.90;89.30;;;;;;5015029;28;20320;-72
2021/01/20 10:17:51;;;;;;;2.47;1.00;;;9.90;89.00;;;;;;5023427;28;20054;-73
2021/01/20 10:20:19;;;;;;;2.33;1.10;;;10.00;87.80;;;;;;5021646;28;20049;-73
2021/01/20 10:22:45;;;;;;;2.63;1.07;;;9.90;87.10;;;;;;5007941;28;20034;-73
2021/01/20 10:25:12;;;;;;;3.87;1.00;;;9.90;86.30;;;;;;5014898;28;20419;-73
2021/01/20 10:27:39;;;;;;;2.33;1.07;;;10.00;86.40;;;;;;5011378;28;20424;-72
2021/01/20 10:30:06;;;;;;;2.73;0.97;;;9.90;85.90;;;;;;5030671;28;20041;-72
2021/01/20 10:32:32;;;;;;;1.27;0.93;;;10.00;86.50;;;;;;5022278;28;20441;-73
2021/01/20 10:34:59;;;;;;;3.23;1.00;;;10.00;86.70;;;;;;5028915;28;20061;-72
2021/01/20 10:37:25;;;;;;;2.70;1.00;;;10.00;86.20;;;;;;5008791;28;20468;-72
2021/01/20 10:39:52;;;;;;;2.53;0.90;;;9.90;86.20;;;;;;5025836;28;20463;-72
2021/01/20 10:42:18;;;;;;;3.47;1.23;;;10.00;86.10;;;;;;5032396;28;20033;-74
2021/01/20 10:44:47;;;;;;;2.27;0.70;;;9.90;85.50;;;;;;5021842;28;20746;-74
2021/01/20 10:47:14;;;;;;;2.40;0.70;;;10.00;85.70;;;;;;5027700;28;20060;-74
2021/01/20 10:49:41;;;;;;;2.00;0.80;;;10.00;86.10;;;;;;5007685;28;20073;-75
2021/01/20 10:52:07;;;;;;;1.57;0.67;;;10.00;86.10;;;;;;5028843;28;20048;-74
2021/01/20 10:54:34;;;;;;;2.70;1.60;;;10.00;86.00;;;;;;4982014;28;20070;-74
2021/01/20 10:57:03;;;;;;;3.50;1.27;;;10.00;84.60;;;;;;5042239;28;20038;-74
2021/01/20 10:59:39;;;;;;;2.93;0.90;;;10.00;85.10;;;;;;5013236;28;20086;-75
2021/01/20 11:02:05;;;;;;;3.77;1.23;;;10.00;84.70;;;;;;4997146;28;20125;-74
2021/01/20 11:04:32;;;;;;;2.60;1.07;;;10.00;82.70;;;;;;5015456;28;20123;-76
2021/01/20 11:06:58;;;;;;;3.13;1.20;;;10.00;83.10;;;;;;5005094;28;20092;-76
2021/01/20 11:09:25;;;;;;;3.07;1.10;;;10.00;83.10;;;;;;5026150;28;20516;-75
2021/01/20 11:11:52;;;;;;;2.53;1.20;;;10.10;82.90;;;;;;5022318;28;20116;-75
2021/01/20 11:14:22;;;;;;;1.77;0.90;;;10.10;83.00;;;;;;5017660;28;20116;-76
2021/01/20 11:16:51;;;;;;;2.70;1.27;;;10.20;81.60;;;;;;5017159;28;20911;-75
2021/01/20 11:19:18;;;;;;;3.10;1.10;;;10.20;80.90;;;;;;5007178;28;20042;-72
2021/01/20 11:21:45;;;;;;;3.13;1.10;;;10.20;81.50;;;;;;5043565;28;20037;-74
2021/01/20 11:24:12;;;;;;;3.17;1.17;;;10.20;79.60;;;;;;5011470;28;20042;-74
2021/01/20 11:26:38;;;;;;;2.00;0.90;;;10.30;79.70;;;;;;5009785;28;20042;-72
2021/01/20 11:29:05;;;;;;;2.90;1.30;;;10.30;80.20;;;;;;4990433;28;20482;-71
2021/01/20 11:31:31;;;;;;;2.10;0.90;;;10.30;80.60;;;;;;5024654;28;20510;-70
2021/01/20 11:33:58;;;;;;;1.63;0.87;;;10.40;80.10;;;;;;5011281;28;20359;-74
2021/01/20 11:36:24;;;;;;;2.57;1.03;;;10.30;80.30;;;;;;4992217;28;20058;-77
2021/01/20 11:38:50;;;;;;;1.97;0.90;;;10.40;80.90;;;;;;5011011;28;20050;-71
2021/01/20 11:41:17;;;;;;;2.10;1.00;;;10.40;80.20;;;;;;5011553;28;20040;-72
2021/01/20 11:43:44;;;;;;;1.63;0.70;;;10.40;78.40;;;;;;5010002;28;20096;-71
2021/01/20 11:46:10;;;;;;;3.70;1.00;;;10.40;79.10;;;;;;5010259;28;20088;-71
2021/01/20 11:48:37;;;;;;;3.20;1.27;;;10.40;79.30;;;;;;5011131;28;20050;-72
2021/01/20 11:51:04;;;;;;;2.03;0.70;;;10.50;79.70;;;;;;5010557;28;20580;-72
2021/01/20 11:53:30;;;;;;;2.80;0.80;;;10.50;79.30;;;;;;5011830;28;20072;-72
2021/01/20 11:55:56;;;;;;;2.17;0.70;;;10.50;79.60;;;;;;5025479;28;20037;-72
2021/01/20 11:58:25;;;;;;;2.67;0.90;;;10.50;79.10;;;;;;5041956;28;20049;-72
2021/01/20 12:00:51;;;;;;;2.50;0.97;;;10.50;79.00;;;;;;5017732;28;20050;-74
2021/01/20 12:03:21;;;;;;;3.13;1.00;;;10.50;78.10;;;;;;4999422;28;20050;-72
2021/01/20 12:05:51;;;;;;;2.43;1.03;;;10.60;77.90;;;;;;5012169;28;20049;-75
2021/01/20 12:08:17;;;;;;;2.07;0.93;;;10.60;77.60;;;;;;5017811;28;20444;-75
2021/01/20 12:10:44;;;;;;;2.73;1.07;;;10.60;77.40;;;;;;4998324;28;20068;-75
2021/01/20 12:13:11;;;;;;;1.93;0.70;;;10.60;77.20;;;;;;5010322;28;20422;-80
2021/01/20 12:15:58;;;;;;;3.97;2.07;;;10.70;77.20;;;;;;5006111;28;20041;-75
2021/01/20 12:18:24;;;;;;;2.83;0.97;;;10.60;75.70;;;;;;5012395;28;20092;-73
2021/01/20 12:20:51;;;;;;;3.27;1.43;;;10.60;76.30;;;;;;5021094;28;20053;-72
2021/01/20 12:23:17;;;;;;;2.40;0.97;;;10.70;77.60;;;;;;5023905;28;20099;-71
2021/01/20 12:25:44;;;;;;;4.03;0.87;;;10.70;77.50;;;;;;5021177;28;20042;-74
2021/01/20 12:28:10;;;;;;;3.57;1.17;;;10.70;77.40;;;;;;5021693;28;20066;-74
2021/01/20 12:30:37;;;;;;;2.13;0.80;;;10.60;76.50;;;;;;4995095;28;20448;-74
2021/01/20 12:33:04;;;;;;;2.90;1.20;;;10.60;77.20;;;;;;5015401;28;20037;-74
2021/01/20 12:35:30;;;;;;;1.80;0.73;;;10.50;77.20;;;;;;5011307;28;20038;-74
2021/01/20 12:37:59;;;;;;;1.43;0.77;;;10.40;77.50;;;;;;5024116;28;20041;-74
2021/01/20 12:40:26;;;;;;;2.07;1.00;;;10.50;77.80;;;;;;5008682;28;20045;-74
2021/01/20 12:42:59;;;;;;;2.33;0.80;;;10.40;77.00;;;;;;5020530;28;20042;-71
2021/01/20 12:45:29;;;;;;;3.03;0.93;;;10.40;77.10;;;;;;5032279;28;20050;-71
2021/01/20 12:47:56;;;;;;;2.37;0.97;;;10.30;76.40;;;;;;5029122;28;20061;-71
2021/01/20 12:50:23;;;;;;;3.33;1.30;;;10.20;76.10;;;;;;5007249;28;20476;-71
2021/01/20 12:52:58;;;;;;;4.07;1.33;;;10.20;75.70;;;;;;5007131;28;20091;-71
2021/01/20 12:55:26;;;;;;;2.13;1.20;;;10.20;76.20;;;;;;5026193;28;20488;-71
2021/01/20 12:57:53;;;;;;;3.33;1.20;;;10.20;75.50;;;;;;4997062;28;20048;-71
2021/01/20 13:00:22;;;;;;;2.93;0.83;;;10.20;76.10;;;;;;5024253;28;20049;-71
2021/01/20 13:02:48;;;;;;;3.57;1.77;;;10.20;76.40;;;;;;5017584;28;20033;-72
2021/01/20 13:05:15;;;;;;;2.83;0.90;;;10.20;76.30;;;;;;5016036;28;20053;-72
2021/01/20 13:07:41;;;;;;;2.33;0.97;;;10.20;76.70;;;;;;5032410;28;20548;-72
2021/01/20 13:10:09;;;;;;;2.83;1.00;;;10.20;76.70;;;;;;5032610;28;20045;-73